createdAt,value
2022-09-17T00:00:18.248Z,598
2022-09-17T00:02:18.060Z,563
2022-09-17T00:04:17.904Z,515
2022-09-17T00:06:17.675Z,591
2022-09-17T00:08:17.477Z,564
2022-09-17T00:10:18.250Z,479
2022-09-17T00:12:17.981Z,683
2022-09-17T00:14:17.755Z,551
2022-09-17T00:16:17.570Z,611
2022-09-17T00:18:17.580Z,605
2022-09-17T00:20:17.382Z,450
2022-09-17T00:22:18.196Z,558
2022-09-17T00:24:17.957Z,583
2022-09-17T00:26:17.734Z,643
2022-09-17T00:28:17.514Z,573
2022-09-17T00:30:18.228Z,557
2022-09-17T00:32:17.969Z,546
2022-09-17T00:34:17.751Z,624
2022-09-17T00:36:17.521Z,562
2022-09-17T00:38:18.311Z,450
2022-09-17T00:40:18.158Z,591
2022-09-17T00:42:18.024Z,524
2022-09-17T00:44:17.835Z,654
2022-09-17T00:46:17.642Z,629
2022-09-17T00:48:17.504Z,605
2022-09-17T00:50:18.307Z,616
2022-09-17T00:52:18.073Z,545
2022-09-17T00:54:17.892Z,571
2022-09-17T00:56:17.711Z,547
2022-09-17T00:58:17.485Z,550
2022-09-17T01:00:18.268Z,630
2022-09-17T01:02:18.063Z,601
2022-09-17T01:04:17.974Z,621
2022-09-17T01:06:17.701Z,573
2022-09-17T01:08:17.522Z,553
2022-09-17T01:10:18.370Z,579
2022-09-17T01:12:18.170Z,560
2022-09-17T01:14:17.977Z,642
2022-09-17T01:16:17.789Z,561
2022-09-17T01:18:17.671Z,622
2022-09-17T01:20:17.443Z,602
2022-09-17T01:22:18.225Z,557
2022-09-17T01:24:18.246Z,619
2022-09-17T01:26:18.012Z,625
2022-09-17T01:28:17.798Z,616
2022-09-17T01:30:17.627Z,552
2022-09-17T01:32:17.390Z,635
2022-09-17T01:34:18.154Z,523
2022-09-17T01:36:17.929Z,464
2022-09-17T01:38:17.775Z,688
2022-09-17T01:40:17.662Z,610
2022-09-17T01:42:17.562Z,558
2022-09-17T01:44:17.434Z,556
2022-09-17T01:46:18.257Z,589
2022-09-17T01:48:18.101Z,563
2022-09-17T01:50:17.913Z,543
2022-09-17T01:52:17.741Z,660
2022-09-17T01:54:17.574Z,584
2022-09-17T01:56:18.342Z,587
2022-09-17T01:58:18.165Z,613
2022-09-17T02:00:17.898Z,666
2022-09-17T02:02:17.659Z,554
2022-09-17T02:04:17.494Z,618
2022-09-17T02:06:18.295Z,604
2022-09-17T02:08:18.112Z,663
2022-09-17T02:10:17.887Z,618
2022-09-17T02:12:17.733Z,661
2022-09-17T02:14:17.541Z,619
2022-09-17T02:16:17.412Z,591
2022-09-17T02:18:17.488Z,522
2022-09-17T02:20:22.247Z,628
2022-09-17T02:22:17.694Z,605
2022-09-17T02:24:17.553Z,605
2022-09-17T02:26:18.449Z,578
2022-09-17T02:28:18.376Z,617
2022-09-17T02:30:18.162Z,653
2022-09-17T02:32:17.953Z,544
2022-09-17T02:34:17.837Z,553
2022-09-17T02:36:17.670Z,565
2022-09-17T02:38:17.418Z,628
2022-09-17T02:40:18.417Z,607
2022-09-17T02:42:18.375Z,567
2022-09-17T02:44:18.233Z,615
2022-09-17T02:46:18.094Z,525
2022-09-17T02:48:18.002Z,681
2022-09-17T02:50:17.767Z,591
2022-09-17T02:52:17.969Z,598
2022-09-17T02:54:17.751Z,585
2022-09-17T02:56:17.533Z,544
2022-09-17T02:58:18.374Z,607
2022-09-17T03:00:18.145Z,616
2022-09-17T03:02:18.017Z,556
2022-09-17T03:04:17.767Z,580
2022-09-17T03:06:17.558Z,624
2022-09-17T03:08:18.262Z,614
2022-09-17T03:10:17.971Z,511
2022-09-17T03:12:17.702Z,661
2022-09-17T03:14:17.595Z,603
2022-09-17T03:16:17.422Z,619
2022-09-17T03:18:17.490Z,679
2022-09-17T03:20:17.578Z,636
2022-09-17T03:22:17.371Z,606
2022-09-17T03:24:18.130Z,691
2022-09-17T03:26:17.892Z,605
2022-09-17T03:28:17.777Z,618
2022-09-17T03:30:17.559Z,695
2022-09-17T03:32:18.286Z,617
2022-09-17T03:34:18.138Z,614
2022-09-17T03:36:17.940Z,653
2022-09-17T03:38:17.651Z,574
2022-09-17T03:40:17.417Z,639
2022-09-17T03:42:18.251Z,659
2022-09-17T03:44:18.113Z,678
2022-09-17T03:46:17.940Z,625
2022-09-17T03:48:17.719Z,608
2022-09-17T03:50:17.560Z,618
2022-09-17T03:52:17.779Z,562
2022-09-17T03:54:17.586Z,579
2022-09-17T03:56:17.960Z,677
2022-09-17T03:58:17.787Z,646
2022-09-17T04:00:17.603Z,577
2022-09-17T04:02:17.544Z,600
2022-09-17T04:04:17.358Z,637
2022-09-17T04:06:18.181Z,573
2022-09-17T04:08:18.030Z,623
2022-09-17T04:10:17.783Z,478
2022-09-17T04:12:17.479Z,595
2022-09-17T04:14:18.288Z,612
2022-09-17T04:16:18.107Z,466
2022-09-17T04:18:18.145Z,605
2022-09-17T04:20:17.922Z,558
2022-09-17T04:22:17.787Z,639
2022-09-17T04:24:17.574Z,563
2022-09-17T04:26:17.951Z,531
2022-09-17T04:28:17.701Z,640
2022-09-17T04:30:17.491Z,630
2022-09-17T04:32:18.313Z,559
2022-09-17T04:34:18.165Z,646
2022-09-17T04:36:17.914Z,588
2022-09-17T04:38:17.741Z,538
2022-09-17T04:40:18.262Z,545
2022-09-17T04:42:18.149Z,594
2022-09-17T04:44:17.456Z,531
2022-09-17T04:46:18.302Z,593
2022-09-17T04:48:18.124Z,682
2022-09-17T04:50:17.852Z,506
2022-09-17T04:52:17.609Z,549
2022-09-17T04:54:17.340Z,597
2022-09-17T04:56:18.233Z,542
2022-09-17T04:58:17.999Z,661
2022-09-17T05:00:17.768Z,633
2022-09-17T05:02:17.564Z,527
2022-09-17T05:04:18.383Z,641
2022-09-17T05:06:18.072Z,620
2022-09-17T05:08:17.877Z,670
2022-09-17T05:10:17.622Z,634
2022-09-17T05:12:17.424Z,585
2022-09-17T05:14:18.247Z,651
2022-09-17T05:16:18.037Z,628
2022-09-17T05:18:17.969Z,624
2022-09-17T05:20:17.722Z,670
2022-09-17T05:22:21.292Z,596
2022-09-17T05:24:18.110Z,495
2022-09-17T05:26:17.904Z,547
2022-09-17T05:28:17.760Z,597
2022-09-17T05:30:17.678Z,616
2022-09-17T05:32:17.442Z,599
2022-09-17T05:34:18.273Z,620
2022-09-17T05:36:18.088Z,633
2022-09-17T05:38:17.912Z,579
2022-09-17T05:40:17.803Z,562
2022-09-17T05:42:17.600Z,546
2022-09-17T05:44:18.271Z,582
2022-09-17T05:46:18.220Z,634
2022-09-17T05:48:18.044Z,554
2022-09-17T05:50:17.828Z,631
2022-09-17T05:52:17.634Z,590
2022-09-17T05:54:17.431Z,608
2022-09-17T05:56:18.187Z,558
2022-09-17T05:58:18.109Z,619
2022-09-17T06:00:17.893Z,562
2022-09-17T06:02:17.703Z,610
2022-09-17T06:04:17.529Z,611
2022-09-17T06:06:18.342Z,583
2022-09-17T06:08:18.081Z,613
2022-09-17T06:10:17.899Z,652
2022-09-17T06:12:17.730Z,562
2022-09-17T06:14:17.553Z,559
2022-09-17T06:16:17.353Z,562
2022-09-17T06:18:18.304Z,654
2022-09-17T06:20:17.962Z,623
2022-09-17T06:22:17.752Z,632
2022-09-17T06:24:17.504Z,592
2022-09-17T06:26:18.255Z,496
2022-09-17T06:28:18.037Z,600
2022-09-17T06:30:17.802Z,605
2022-09-17T06:32:17.633Z,525
2022-09-17T06:34:17.471Z,681
2022-09-17T06:36:18.279Z,618
2022-09-17T06:38:18.088Z,649
2022-09-17T06:40:18.016Z,586
2022-09-17T06:42:17.832Z,597
2022-09-17T06:44:17.653Z,588
2022-09-17T06:46:17.587Z,585
2022-09-17T06:48:17.433Z,585
2022-09-17T06:50:18.268Z,574
2022-09-17T06:52:18.082Z,650
2022-09-17T06:54:18.296Z,609
2022-09-17T06:56:18.117Z,582
2022-09-17T06:58:17.930Z,617
2022-09-17T07:00:17.756Z,609
2022-09-17T07:02:17.593Z,633
2022-09-17T07:04:17.686Z,549
2022-09-17T07:06:17.530Z,521
2022-09-17T07:08:18.353Z,608
2022-09-17T07:10:18.235Z,664
2022-09-17T07:12:18.088Z,586
2022-09-17T07:14:17.904Z,638
2022-09-17T07:16:17.756Z,605
2022-09-17T07:18:17.765Z,678
2022-09-17T07:20:17.651Z,637
2022-09-17T07:22:17.493Z,574
2022-09-17T07:24:18.299Z,580
2022-09-17T07:26:18.029Z,628
2022-09-17T07:28:17.837Z,665
2022-09-17T07:30:17.638Z,654
2022-09-17T07:32:17.456Z,668
2022-09-17T07:34:18.417Z,587
2022-09-17T07:36:18.318Z,626
2022-09-17T07:38:18.054Z,665
2022-09-17T07:40:17.795Z,595
2022-09-17T07:42:17.683Z,660
2022-09-17T07:44:17.435Z,689
2022-09-17T07:46:18.374Z,683
2022-09-17T07:48:18.195Z,605
2022-09-17T07:50:17.996Z,604
2022-09-17T07:52:17.821Z,643
2022-09-17T07:54:17.603Z,558
2022-09-17T07:56:17.382Z,591
2022-09-17T07:58:18.272Z,585
2022-09-17T08:00:18.034Z,674
2022-09-17T08:02:20.711Z,651
2022-09-17T08:04:22.530Z,573
2022-09-17T08:06:18.307Z,650
2022-09-17T08:08:21.216Z,595
2022-09-17T08:10:18.156Z,646
2022-09-17T08:12:18.053Z,666
2022-09-17T08:14:17.863Z,645
2022-09-17T08:16:17.739Z,605
2022-09-17T08:18:17.737Z,672
2022-09-17T08:20:17.722Z,566
2022-09-17T08:22:17.425Z,673
2022-09-17T08:24:18.175Z,608
2022-09-17T08:26:18.023Z,571
2022-09-17T08:28:17.801Z,614
2022-09-17T08:30:17.593Z,660
2022-09-17T08:32:18.317Z,699
2022-09-17T08:34:18.156Z,684
2022-09-17T08:36:17.927Z,586
2022-09-17T08:38:17.818Z,620
2022-09-17T08:40:17.679Z,626
2022-09-17T08:42:17.488Z,612
2022-09-17T08:44:18.178Z,616
2022-09-17T08:46:18.023Z,532
2022-09-17T08:48:17.863Z,624
2022-09-17T08:50:17.654Z,685
2022-09-17T08:52:17.453Z,602
2022-09-17T08:54:18.210Z,650
2022-09-17T08:56:18.000Z,631
2022-09-17T08:58:17.799Z,546
2022-09-17T09:00:17.577Z,660
2022-09-17T09:02:17.497Z,680
2022-09-17T09:04:18.318Z,640
2022-09-17T09:06:18.045Z,634
2022-09-17T09:08:17.886Z,632
2022-09-17T09:10:17.728Z,543
2022-09-17T09:12:17.627Z,563
2022-09-17T09:14:17.402Z,690
2022-09-17T09:16:18.224Z,617
2022-09-17T09:18:18.153Z,600
2022-09-17T09:20:18.091Z,659
2022-09-17T09:22:17.955Z,670
2022-09-17T09:24:17.795Z,664
2022-09-17T09:26:17.618Z,644
2022-09-17T09:28:17.411Z,675
2022-09-17T09:30:18.293Z,613
2022-09-17T09:32:21.201Z,707
2022-09-17T09:34:18.012Z,628
2022-09-17T09:36:17.879Z,594
2022-09-17T09:38:17.818Z,691
2022-09-17T09:40:17.623Z,622
2022-09-17T09:42:17.427Z,621
2022-09-17T09:44:18.269Z,592
2022-09-17T09:46:18.162Z,700
2022-09-17T09:48:17.962Z,584
2022-09-17T09:50:17.777Z,580
2022-09-17T09:52:17.527Z,724
2022-09-17T09:54:18.281Z,669
2022-09-17T09:56:18.124Z,577
2022-09-17T09:58:18.034Z,708
2022-09-17T10:00:17.910Z,730
2022-09-17T10:02:17.884Z,647
2022-09-17T10:04:17.865Z,607
2022-09-17T10:06:17.630Z,686
2022-09-17T10:08:17.482Z,723
2022-09-17T10:10:18.390Z,526
2022-09-17T10:12:18.218Z,723
2022-09-17T10:14:18.040Z,619
2022-09-17T10:16:17.928Z,588
2022-09-17T10:18:18.016Z,670
2022-09-17T10:20:22.197Z,650
2022-09-17T10:22:17.816Z,613
2022-09-17T10:24:17.704Z,708
2022-09-17T10:26:17.494Z,703
2022-09-17T10:28:18.418Z,645
2022-09-17T10:30:18.283Z,720
2022-09-17T10:32:18.133Z,557
2022-09-17T10:34:17.984Z,646
2022-09-17T10:36:17.871Z,658
2022-09-17T10:38:17.800Z,691
2022-09-17T10:40:17.724Z,614
2022-09-17T10:42:17.643Z,652
2022-09-17T10:44:17.414Z,562
2022-09-17T10:46:18.360Z,653
2022-09-17T10:48:18.272Z,689
2022-09-17T10:50:18.202Z,574
2022-09-17T10:52:18.033Z,604
2022-09-17T10:54:17.843Z,617
2022-09-17T10:56:17.671Z,688
2022-09-17T10:58:17.583Z,736
2022-09-17T11:00:17.608Z,696
2022-09-17T11:02:17.626Z,601
2022-09-17T11:04:17.462Z,658
2022-09-17T11:06:18.306Z,630
2022-09-17T11:08:19.189Z,649
2022-09-17T11:10:17.996Z,627
2022-09-17T11:12:17.773Z,602
2022-09-17T11:14:17.533Z,720
2022-09-17T11:16:17.426Z,693
2022-09-17T11:18:17.437Z,579
2022-09-17T11:20:18.285Z,690
2022-09-17T11:22:18.106Z,680
2022-09-17T11:24:17.892Z,643
2022-09-17T11:26:17.737Z,720
2022-09-17T11:28:17.536Z,601
2022-09-17T11:30:18.545Z,677
2022-09-17T11:32:18.406Z,749
2022-09-17T11:34:18.183Z,714
2022-09-17T11:36:17.868Z,674
2022-09-17T11:38:17.701Z,766
2022-09-17T11:40:17.642Z,656
2022-09-17T11:42:17.554Z,699
2022-09-17T11:44:18.387Z,638
2022-09-17T11:46:18.170Z,641
2022-09-17T11:48:18.011Z,705
2022-09-17T11:50:17.726Z,761
2022-09-17T11:52:17.493Z,705
2022-09-17T11:54:18.291Z,666
2022-09-17T11:56:18.144Z,711
2022-09-17T11:58:18.014Z,736
2022-09-17T12:00:17.843Z,636
2022-09-17T12:02:17.781Z,710
2022-09-17T12:04:17.550Z,728
2022-09-17T12:06:18.418Z,643
2022-09-17T12:08:18.206Z,721
2022-09-17T12:10:17.962Z,674
2022-09-17T12:12:32.086Z,767
2022-09-17T12:14:17.851Z,591
2022-09-17T12:16:17.796Z,769
2022-09-17T12:18:31.530Z,745
2022-09-17T12:20:18.017Z,636
2022-09-17T12:22:17.890Z,683
2022-09-17T12:24:17.702Z,777
2022-09-17T12:26:17.707Z,706
2022-09-17T12:28:17.593Z,629
2022-09-17T12:30:21.951Z,675
2022-09-17T12:32:17.446Z,770
2022-09-17T12:34:17.703Z,673
2022-09-17T12:36:17.526Z,640
2022-09-17T12:38:18.414Z,664
2022-09-17T12:40:18.251Z,710
2022-09-17T12:42:18.188Z,733
2022-09-17T12:44:18.016Z,669
2022-09-17T12:46:17.867Z,703
2022-09-17T12:48:17.644Z,660
2022-09-17T12:50:17.447Z,638
2022-09-17T12:52:18.264Z,623
2022-09-17T12:54:18.096Z,632
2022-09-17T12:56:17.870Z,689
2022-09-17T12:58:17.601Z,653
2022-09-17T13:00:17.435Z,690
2022-09-17T13:02:18.232Z,613
2022-09-17T13:04:18.099Z,684
2022-09-17T13:06:17.871Z,675
2022-09-17T13:08:17.695Z,644
2022-09-17T13:10:17.581Z,696
2022-09-17T13:12:18.349Z,660
2022-09-17T13:14:18.131Z,725
2022-09-17T13:16:18.446Z,670
2022-09-17T13:18:26.392Z,683
2022-09-17T13:20:17.671Z,654
2022-09-17T13:22:17.422Z,729
2022-09-17T13:24:18.173Z,672
2022-09-17T13:26:17.871Z,703
2022-09-17T13:28:17.654Z,714
2022-09-17T13:30:17.502Z,662
2022-09-17T13:32:18.384Z,749
2022-09-17T13:34:18.177Z,772
2022-09-17T13:36:17.975Z,753
2022-09-17T13:38:19.054Z,720
2022-09-17T13:40:17.463Z,643
2022-09-17T13:42:18.230Z,718
2022-09-17T13:44:18.124Z,585
2022-09-17T13:46:18.002Z,680
2022-09-17T13:48:17.851Z,710
2022-09-17T13:50:17.915Z,733
2022-09-17T13:52:17.696Z,705
2022-09-17T13:54:17.452Z,745
2022-09-17T13:56:18.246Z,631
2022-09-17T13:58:18.035Z,689
2022-09-17T14:00:17.929Z,695
2022-09-17T14:02:17.665Z,722
2022-09-17T14:04:17.570Z,737
2022-09-17T14:06:17.417Z,725
2022-09-17T14:08:18.211Z,648
2022-09-17T14:10:18.012Z,655
2022-09-17T14:12:17.861Z,771
2022-09-17T14:14:17.734Z,652
2022-09-17T14:16:17.589Z,635
2022-09-17T14:18:17.577Z,707
2022-09-17T14:20:17.428Z,706
2022-09-17T14:22:18.273Z,662
2022-09-17T14:24:18.083Z,629
2022-09-17T14:26:17.815Z,730
2022-09-17T14:28:17.560Z,771
2022-09-17T14:30:18.336Z,699
2022-09-17T14:32:18.110Z,709
2022-09-17T14:34:17.951Z,733
2022-09-17T14:36:17.855Z,688
2022-09-17T14:38:17.641Z,647
2022-09-17T14:40:17.913Z,672
2022-09-17T14:42:17.812Z,682
2022-09-17T14:44:17.525Z,699
2022-09-17T14:46:18.460Z,745
2022-09-17T14:48:18.322Z,713
2022-09-17T14:50:18.040Z,737
2022-09-17T14:52:18.182Z,607
2022-09-17T14:54:17.970Z,691
2022-09-17T14:56:17.760Z,688
2022-09-17T14:58:17.578Z,573
2022-09-17T15:00:17.675Z,636
2022-09-17T15:02:17.445Z,619
2022-09-17T15:04:18.279Z,650
2022-09-17T15:06:18.115Z,632
2022-09-17T15:08:17.865Z,595
2022-09-17T15:10:17.700Z,717
2022-09-17T15:12:17.486Z,699
2022-09-17T15:14:18.264Z,640
2022-09-17T15:16:18.109Z,665
2022-09-17T15:18:18.057Z,686
2022-09-17T15:20:17.790Z,682
2022-09-17T15:22:17.481Z,603
2022-09-17T15:24:18.246Z,684
2022-09-17T15:26:18.108Z,637
2022-09-17T15:28:17.808Z,606
2022-09-17T15:30:17.644Z,658
2022-09-17T15:32:17.528Z,607
2022-09-17T15:34:18.338Z,713
2022-09-17T15:36:18.238Z,599
2022-09-17T15:38:22.615Z,677
2022-09-17T15:40:17.737Z,646
2022-09-17T15:42:17.780Z,654
2022-09-17T15:44:32.984Z,691
2022-09-17T15:46:17.917Z,702
2022-09-17T15:48:17.628Z,594
2022-09-17T15:50:17.361Z,655
2022-09-17T15:52:18.088Z,629
2022-09-17T15:54:18.062Z,576
2022-09-17T15:56:17.988Z,596
2022-09-17T15:58:18.057Z,632
2022-09-17T16:00:17.840Z,614
2022-09-17T16:02:17.761Z,605
2022-09-17T16:04:17.549Z,617
2022-09-17T16:06:18.421Z,646
2022-09-17T16:08:18.256Z,558
2022-09-17T16:10:18.057Z,568
2022-09-17T16:12:17.922Z,635
2022-09-17T16:14:17.727Z,621
2022-09-17T16:16:17.578Z,601
2022-09-17T16:18:17.504Z,630
2022-09-17T16:20:18.224Z,599
2022-09-17T16:22:18.017Z,629
2022-09-17T16:24:17.753Z,652
2022-09-17T16:26:17.566Z,555
2022-09-17T16:28:17.357Z,680
2022-09-17T16:30:18.124Z,687
2022-09-17T16:32:17.876Z,661
2022-09-17T16:34:17.685Z,629
2022-09-17T16:36:17.399Z,708
2022-09-17T16:38:18.191Z,611
2022-09-17T16:40:18.044Z,631
2022-09-17T16:42:17.812Z,557
2022-09-17T16:44:17.589Z,631
2022-09-17T16:46:17.478Z,636
2022-09-17T16:48:18.280Z,678
2022-09-17T16:50:18.068Z,672
2022-09-17T16:52:17.948Z,599
2022-09-17T16:54:17.821Z,691
2022-09-17T16:56:17.684Z,609
2022-09-17T16:58:17.499Z,609
2022-09-17T17:00:18.284Z,623
2022-09-17T17:02:18.056Z,693
2022-09-17T17:04:17.801Z,593
2022-09-17T17:06:17.597Z,613
2022-09-17T17:08:17.273Z,696
2022-09-17T17:10:18.086Z,621
2022-09-17T17:12:17.904Z,619
2022-09-17T17:14:17.796Z,614
2022-09-17T17:16:17.761Z,611
2022-09-17T17:18:18.384Z,661
2022-09-17T17:20:18.209Z,589
2022-09-17T17:22:17.982Z,657
2022-09-17T17:24:17.784Z,646
2022-09-17T17:26:17.543Z,684
2022-09-17T17:28:18.265Z,679
2022-09-17T17:30:18.046Z,622
2022-09-17T17:32:17.823Z,729
2022-09-17T17:34:17.896Z,627
2022-09-17T17:36:17.724Z,625
2022-09-17T17:38:17.529Z,662
2022-09-17T17:40:18.442Z,662
2022-09-17T17:42:18.309Z,684
2022-09-17T17:44:18.067Z,664
2022-09-17T17:46:17.832Z,628
2022-09-17T17:48:17.680Z,688
2022-09-17T17:50:17.468Z,662
2022-09-17T17:52:18.252Z,654
2022-09-17T17:54:17.960Z,684
2022-09-17T17:56:17.715Z,565
2022-09-17T17:58:17.593Z,664
2022-09-17T18:00:17.300Z,678
2022-09-17T18:02:17.571Z,605
2022-09-17T18:04:17.429Z,610
2022-09-17T18:06:17.407Z,719
2022-09-17T18:08:18.196Z,677
2022-09-17T18:10:17.986Z,608
2022-09-17T18:12:17.852Z,687
2022-09-17T18:14:17.696Z,752
2022-09-17T18:16:17.514Z,606
2022-09-17T18:18:17.715Z,652
2022-09-17T18:20:17.439Z,506
2022-09-17T18:22:17.734Z,568
2022-09-17T18:24:17.525Z,686
2022-09-17T18:26:17.474Z,678
2022-09-17T18:28:18.232Z,631
2022-09-17T18:30:17.940Z,619
2022-09-17T18:32:17.798Z,506
2022-09-17T18:34:17.932Z,674
2022-09-17T18:36:17.708Z,676
2022-09-17T18:38:17.876Z,655
2022-09-17T18:40:17.724Z,653
2022-09-17T18:42:17.548Z,712
2022-09-17T18:44:18.320Z,745
2022-09-17T18:46:18.161Z,610
2022-09-17T18:48:17.959Z,679
2022-09-17T18:50:17.735Z,653
2022-09-17T18:52:17.543Z,673
2022-09-17T18:54:18.326Z,631
2022-09-17T18:56:18.081Z,694
2022-09-17T18:58:17.823Z,605
2022-09-17T19:00:17.681Z,657
2022-09-17T19:02:17.531Z,704
2022-09-17T19:04:18.382Z,676
2022-09-17T19:06:18.213Z,735
2022-09-17T19:08:18.078Z,657
2022-09-17T19:10:17.878Z,658
2022-09-17T19:12:17.593Z,579
2022-09-17T19:14:17.411Z,727
2022-09-17T19:16:18.230Z,760
2022-09-17T19:18:18.224Z,679
2022-09-17T19:20:17.962Z,683
2022-09-17T19:22:17.778Z,691
2022-09-17T19:24:17.637Z,692
2022-09-17T19:26:17.440Z,659
2022-09-17T19:28:18.235Z,735
2022-09-17T19:30:18.012Z,778
2022-09-17T19:32:17.759Z,776
2022-09-17T19:34:17.571Z,731
2022-09-17T19:36:17.414Z,789
2022-09-17T19:38:18.172Z,675
2022-09-17T19:40:17.985Z,677
2022-09-17T19:42:17.764Z,644
2022-09-17T19:44:17.581Z,734
2022-09-17T19:46:17.430Z,626
2022-09-17T19:48:21.004Z,635
2022-09-17T19:50:17.935Z,723
2022-09-17T19:52:17.736Z,647
2022-09-17T19:54:17.510Z,806
2022-09-17T19:56:18.255Z,831
2022-09-17T19:58:18.004Z,809
2022-09-17T20:00:17.810Z,827
2022-09-17T20:02:17.651Z,756
2022-09-17T20:04:17.421Z,824
2022-09-17T20:06:18.222Z,820
2022-09-17T20:08:17.957Z,776
2022-09-17T20:10:17.760Z,888
2022-09-17T20:12:17.556Z,805
2022-09-17T20:14:18.360Z,842
2022-09-17T20:16:18.170Z,861
2022-09-17T20:18:22.647Z,855
2022-09-17T20:20:18.151Z,870
2022-09-17T20:22:17.930Z,891
2022-09-17T20:24:17.691Z,873
2022-09-17T20:26:17.498Z,860
2022-09-17T20:28:18.398Z,809
2022-09-17T20:30:18.221Z,879
2022-09-17T20:32:17.984Z,938
2022-09-17T20:34:17.748Z,789
2022-09-17T20:36:17.504Z,883
2022-09-17T20:39:07.081Z,948
2022-09-17T20:40:17.641Z,1072
2022-09-17T20:42:17.538Z,1080
2022-09-17T20:44:17.646Z,979
2022-09-17T20:46:17.442Z,1069
2022-09-17T20:48:17.869Z,1027
2022-09-17T20:50:17.617Z,1090
2022-09-17T20:52:21.081Z,1044
2022-09-17T20:54:18.083Z,1110
2022-09-17T20:56:17.463Z,1089
2022-09-17T20:58:50.425Z,1032
2022-09-17T21:00:18.232Z,917
2022-09-17T21:02:18.027Z,1067
2022-09-17T21:04:17.887Z,1072
2022-09-17T21:06:17.652Z,1045
2022-09-17T21:08:17.400Z,1035
2022-09-17T21:10:18.282Z,974
2022-09-17T21:12:18.166Z,952
2022-09-17T21:14:18.045Z,985
2022-09-17T21:16:18.014Z,1018
2022-09-17T21:18:17.882Z,990
2022-09-17T21:20:17.639Z,950
2022-09-17T21:22:17.418Z,912
2022-09-17T21:24:17.456Z,947
2022-09-17T21:26:18.181Z,889
2022-09-17T21:28:17.896Z,892
2022-09-17T21:30:17.707Z,908
2022-09-17T21:32:17.527Z,1055
2022-09-17T21:34:18.219Z,1132
2022-09-17T21:36:18.017Z,1011
2022-09-17T21:38:17.844Z,979
2022-09-17T21:40:17.773Z,965
2022-09-17T21:42:17.583Z,926
2022-09-17T21:44:18.333Z,977
2022-09-17T21:46:18.251Z,913
2022-09-17T21:48:18.094Z,929
2022-09-17T21:50:17.867Z,1009
2022-09-17T21:52:17.583Z,963
2022-09-17T21:54:17.347Z,851
2022-09-17T21:56:18.093Z,878
2022-09-17T21:58:17.900Z,898
2022-09-17T22:00:21.257Z,922
2022-09-17T22:02:17.862Z,881
2022-09-17T22:04:18.545Z,890
2022-09-17T22:06:19.014Z,806
2022-09-17T22:08:17.383Z,865
2022-09-17T22:10:18.195Z,771
2022-09-17T22:12:18.010Z,719
2022-09-17T22:14:17.838Z,834
2022-09-17T22:16:17.641Z,811
2022-09-17T22:18:17.581Z,723
2022-09-17T22:20:18.369Z,731
2022-09-17T22:22:18.098Z,760
2022-09-17T22:24:17.863Z,783
2022-09-17T22:26:17.671Z,709
2022-09-17T22:28:21.228Z,676
2022-09-17T22:30:18.084Z,707
2022-09-17T22:32:17.865Z,749
2022-09-17T22:34:17.688Z,751
2022-09-17T22:36:17.485Z,740
2022-09-17T22:38:18.199Z,727
2022-09-17T22:40:18.008Z,629
2022-09-17T22:42:17.874Z,689
2022-09-17T22:44:17.820Z,700
2022-09-17T22:46:17.634Z,692
2022-09-17T22:48:17.764Z,696
2022-09-17T22:50:17.553Z,601
2022-09-17T22:52:17.814Z,645
2022-09-17T22:54:17.520Z,734
2022-09-17T22:56:17.795Z,714
2022-09-17T22:58:17.595Z,652
2022-09-17T23:00:17.765Z,749
2022-09-17T23:02:17.517Z,673
2022-09-17T23:04:18.251Z,615
2022-09-17T23:06:18.075Z,655
2022-09-17T23:08:17.900Z,641
2022-09-17T23:10:17.693Z,697
2022-09-17T23:12:17.882Z,609
2022-09-17T23:14:17.654Z,579
2022-09-17T23:16:17.958Z,596
2022-09-17T23:18:17.881Z,682
2022-09-17T23:20:17.855Z,639
2022-09-17T23:22:17.923Z,668
2022-09-17T23:24:18.143Z,633
2022-09-17T23:26:17.942Z,602
2022-09-17T23:28:17.860Z,618
2022-09-17T23:30:17.604Z,595
2022-09-17T23:32:17.825Z,649
2022-09-17T23:34:17.561Z,560
2022-09-17T23:36:18.334Z,534
2022-09-17T23:38:18.106Z,605
2022-09-17T23:40:18.414Z,546
2022-09-17T23:42:18.200Z,574
2022-09-17T23:44:17.592Z,516
2022-09-17T23:46:17.442Z,575
2022-09-17T23:48:18.308Z,619
2022-09-17T23:50:18.038Z,623
2022-09-17T23:52:17.791Z,524
2022-09-17T23:54:17.619Z,642
2022-09-17T23:56:17.391Z,666
2022-09-17T23:58:18.364Z,499
